Time;durP1;ratioP1;P1;durP2;ratioP2;P2;SDS_P1;SDS_P2;PMS_P1;PMS_P2;Temp;Humidity;BMP_temperature;BMP_pressure;BME280_temperature;BME280_humidity;BME280_pressure;Samples;Min_cycle;Max_cycle;Signal;HPM_P1;HPM_P2
2022/06/16 00:00:27;;;;;;;8.88;6.20;;;;;;;;;;5064444;28;20029;-58
2022/06/16 00:02:52;;;;;;;7.60;6.10;;;;;;;;;;5060884;28;20024;-59
2022/06/16 00:05:24;;;;;;;10.02;7.07;;;;;;;;;;5070635;28;20024;-59
2022/06/16 00:07:50;;;;;;;12.02;6.60;;;;;;;;;;5065320;28;20025;-59
2022/06/16 00:10:16;;;;;;;9.35;6.82;;;;;;;;;;5073670;28;20030;-58
2022/06/16 00:12:42;;;;;;;9.68;7.00;;;;;;;;;;5071405;28;20035;-58
2022/06/16 00:15:11;;;;;;;12.90;7.68;;;;;;;;;;5070988;28;20021;-59
2022/06/16 00:17:36;;;;;;;10.68;7.30;;;;;;;;;;5069118;28;20326;-59
2022/06/16 00:20:04;;;;;;;10.30;7.20;;;;;;;;;;5071779;28;20032;-59
2022/06/16 00:22:31;;;;;;;10.88;7.00;;;;;;;;;;5072757;28;20016;-58
2022/06/16 00:24:57;;;;;;;9.45;6.47;;;;;;;;;;5070660;28;20029;-59
2022/06/16 00:27:22;;;;;;;10.57;7.10;;;;;;;;;;5067755;28;20028;-59
2022/06/16 00:29:48;;;;;;;8.60;7.15;;;;;;;;;;5071203;28;20029;-58
2022/06/16 00:32:13;;;;;;;6.97;6.28;;;;;;;;;;5073524;28;20035;-59
2022/06/16 00:34:38;;;;;;;12.50;6.53;;;;;;;;;;5072121;28;20024;-60
2022/06/16 00:37:04;;;;;;;7.32;5.97;;;;;;;;;;5068217;28;20036;-59
2022/06/16 00:39:30;;;;;;;8.38;6.70;;;;;;;;;;5072597;28;20028;-59
2022/06/16 00:41:55;;;;;;;9.32;6.85;;;;;;;;;;5066943;28;20028;-59
2022/06/16 00:44:24;;;;;;;10.98;6.53;;;;;;;;;;5074332;28;20030;-59
2022/06/16 00:46:49;;;;;;;8.48;5.90;;;;;;;;;;5073174;28;20055;-59
2022/06/16 00:49:15;;;;;;;10.57;6.65;;;;;;;;;;5069707;28;20060;-59
2022/06/16 00:51:44;;;;;;;10.35;6.78;;;;;;;;;;5064616;28;20150;-59
2022/06/16 00:54:20;;;;;;;8.18;6.18;;;;;;;;;;5066910;28;20032;-59
2022/06/16 00:56:47;;;;;;;10.07;6.65;;;;;;;;;;5064983;28;20507;-59
2022/06/16 00:59:12;;;;;;;8.43;6.40;;;;;;;;;;5063936;28;20095;-59
2022/06/16 01:01:41;;;;;;;8.57;7.25;;;;;;;;;;5065620;28;20479;-58
2022/06/16 01:06:53;;;;;;;8.57;6.30;;;;;;;;;;5068385;28;20047;-59
2022/06/16 01:09:22;;;;;;;11.85;7.40;;;;;;;;;;5076164;28;20108;-59
2022/06/16 01:15:11;;;;;;;9.50;6.30;;;;;;;;;;5073487;28;20568;-59
2022/06/16 01:18:02;;;;;;;9.00;6.97;;;;;;;;;;5069297;28;20055;-59
2022/06/16 01:20:37;;;;;;;12.13;6.50;;;;;;;;;;5067777;28;20087;-59
2022/06/16 01:23:25;;;;;;;9.23;6.97;;;;;;;;;;5075189;28;20024;-59
2022/06/16 01:25:53;;;;;;;9.65;6.53;;;;;;;;;;5068653;28;20515;-60
2022/06/16 01:28:31;;;;;;;10.60;6.75;;;;;;;;;;5069996;28;20029;-59
2022/06/16 01:31:00;;;;;;;9.18;6.72;;;;;;;;;;5073199;28;20556;-59
2022/06/16 01:33:51;;;;;;;8.02;6.10;;;;;;;;;;5077277;28;20028;-59
2022/06/16 01:36:21;;;;;;;8.52;6.82;;;;;;;;;;5068364;28;20028;-59
2022/06/16 01:39:00;;;;;;;11.90;6.78;;;;;;;;;;5074961;28;20052;-59
2022/06/16 01:41:42;;;;;;;9.88;6.80;;;;;;;;;;5075929;28;20506;-59
2022/06/16 01:44:14;;;;;;;8.70;7.07;;;;;;;;;;5071312;28;20404;-59
2022/06/16 01:46:42;;;;;;;10.15;7.50;;;;;;;;;;5073862;28;20437;-59
2022/06/16 01:49:18;;;;;;;10.57;7.43;;;;;;;;;;5071612;28;20024;-59
2022/06/16 01:51:54;;;;;;;8.57;6.75;;;;;;;;;;5069246;28;20123;-60
2022/06/16 01:54:25;;;;;;;10.68;7.57;;;;;;;;;;5062720;28;20155;-59
2022/06/16 01:57:03;;;;;;;12.90;7.55;;;;;;;;;;5057307;28;20028;-59
2022/06/16 01:59:38;;;;;;;10.10;7.30;;;;;;;;;;5066395;28;20035;-59
2022/06/16 02:02:11;;;;;;;10.18;7.15;;;;;;;;;;5067836;28;20058;-59
2022/06/16 02:04:42;;;;;;;10.05;7.47;;;;;;;;;;5070979;28;20024;-59
2022/06/16 02:07:12;;;;;;;10.93;7.53;;;;;;;;;;5072964;28;20039;-59
2022/06/16 02:09:42;;;;;;;9.77;6.95;;;;;;;;;;5072012;28;20021;-59
2022/06/16 02:12:55;;;;;;;11.88;7.43;;;;;;;;;;5073303;28;20115;-59
2022/06/16 02:14:59;;;;;;;13.30;7.18;;;;;;;;;;5072915;28;20035;-59
2022/06/16 02:17:24;;;;;;;13.05;7.43;;;;;;;;;;5070136;28;20034;-59
2022/06/16 02:19:50;;;;;;;8.93;6.97;;;;;;;;;;5070916;28;20048;-60
2022/06/16 02:22:15;;;;;;;8.85;6.53;;;;;;;;;;5075333;28;20031;-59
2022/06/16 02:24:41;;;;;;;7.30;6.50;;;;;;;;;;5074058;28;20664;-59
2022/06/16 02:27:06;;;;;;;12.75;6.65;;;;;;;;;;5071451;28;20535;-60
2022/06/16 02:29:37;;;;;;;9.15;7.20;;;;;;;;;;5068534;28;20025;-58
2022/06/16 02:32:18;;;;;;;10.73;6.60;;;;;;;;;;5071881;28;20031;-59
2022/06/16 02:34:57;;;;;;;9.05;6.72;;;;;;;;;;5072486;28;20036;-59
2022/06/16 02:37:31;;;;;;;9.27;6.85;;;;;;;;;;5068529;28;20032;-59
2022/06/16 02:41:01;;;;;;;9.85;6.93;;;;;;;;;;5075858;28;20027;-59
2022/06/16 02:43:29;;;;;;;13.00;7.07;;;;;;;;;;5027597;28;20180;-59
2022/06/16 02:46:12;;;;;;;7.55;6.10;;;;;;;;;;5045483;28;20024;-59
2022/06/16 02:48:57;;;;;;;9.65;6.43;;;;;;;;;;5071897;28;20537;-59
2022/06/16 02:51:43;;;;;;;10.93;6.68;;;;;;;;;;5060437;28;20029;-59
2022/06/16 02:54:32;;;;;;;9.43;6.55;;;;;;;;;;5064582;28;20056;-60
2022/06/16 02:57:03;;;;;;;10.10;6.47;;;;;;;;;;5061602;28;20057;-59
2022/06/16 02:59:35;;;;;;;9.77;6.65;;;;;;;;;;5066216;28;20027;-59
2022/06/16 03:02:07;;;;;;;11.25;6.45;;;;;;;;;;5071302;28;20124;-60
2022/06/16 03:04:36;;;;;;;7.13;6.18;;;;;;;;;;5070942;28;20020;-59
2022/06/16 03:07:01;;;;;;;9.05;6.68;;;;;;;;;;5071250;28;20353;-59
2022/06/16 03:09:27;;;;;;;8.50;6.50;;;;;;;;;;5072872;28;20081;-59
2022/06/16 03:11:52;;;;;;;9.55;6.20;;;;;;;;;;5071443;28;20020;-59
2022/06/16 03:14:19;;;;;;;10.02;6.85;;;;;;;;;;5070746;28;20029;-59
2022/06/16 03:16:45;;;;;;;10.25;6.15;;;;;;;;;;5070616;28;20044;-59
2022/06/16 03:19:11;;;;;;;9.68;6.10;;;;;;;;;;5074491;28;20155;-59
2022/06/16 03:21:36;;;;;;;9.35;6.95;;;;;;;;;;5072426;28;20108;-59
2022/06/16 03:24:02;;;;;;;9.90;6.70;;;;;;;;;;5071225;28;20111;-59
2022/06/16 03:26:27;;;;;;;13.80;6.68;;;;;;;;;;5068508;28;20032;-60
2022/06/16 03:28:52;;;;;;;7.82;6.20;;;;;;;;;;5071960;28;20086;-59
2022/06/16 03:31:18;;;;;;;12.73;6.38;;;;;;;;;;5074624;28;20051;-59
2022/06/16 03:33:43;;;;;;;9.65;6.78;;;;;;;;;;5072188;28;20039;-60
2022/06/16 03:36:12;;;;;;;10.35;6.57;;;;;;;;;;5067950;28;20035;-59
2022/06/16 03:41:05;;;;;;;12.43;6.40;;;;;;;;;;5074857;28;20034;-59
2022/06/16 03:43:31;;;;;;;8.77;6.82;;;;;;;;;;5066225;28;20021;-59
2022/06/16 03:45:56;;;;;;;11.45;6.95;;;;;;;;;;5060339;28;20024;-59
2022/06/16 03:48:22;;;;;;;10.45;6.90;;;;;;;;;;5059721;28;20116;-59
2022/06/16 03:50:48;;;;;;;10.38;7.25;;;;;;;;;;5062826;28;20139;-58
2022/06/16 03:53:13;;;;;;;11.05;7.57;;;;;;;;;;5064131;28;20048;-59
2022/06/16 03:55:38;;;;;;;10.05;7.47;;;;;;;;;;5062272;28;20555;-59
2022/06/16 03:58:04;;;;;;;10.27;7.22;;;;;;;;;;5061695;28;20460;-59
2022/06/16 04:00:31;;;;;;;9.20;6.82;;;;;;;;;;5070334;28;20499;-58
2022/06/16 04:05:41;;;;;;;9.77;7.07;;;;;;;;;;5069513;28;20455;-59
2022/06/16 04:08:07;;;;;;;12.57;7.35;;;;;;;;;;5071496;28;20029;-58
2022/06/16 04:10:33;;;;;;;16.30;7.63;;;;;;;;;;5073356;28;20395;-58
2022/06/16 04:12:58;;;;;;;12.52;7.00;;;;;;;;;;5070450;28;20035;-59
2022/06/16 04:15:24;;;;;;;11.35;6.60;;;;;;;;;;5070859;28;20024;-58
2022/06/16 04:17:49;;;;;;;9.77;6.95;;;;;;;;;;5070434;28;20016;-59
2022/06/16 04:20:15;;;;;;;9.77;7.65;;;;;;;;;;5075107;28;20024;-58
2022/06/16 04:22:42;;;;;;;8.15;7.00;;;;;;;;;;5075722;28;20080;-58
2022/06/16 04:25:13;;;;;;;10.30;7.03;;;;;;;;;;5072125;28;20477;-58
2022/06/16 04:27:41;;;;;;;11.65;7.20;;;;;;;;;;5073217;28;20017;-58
2022/06/16 04:30:07;;;;;;;10.77;7.55;;;;;;;;;;5066464;28;20509;-58
2022/06/16 04:32:32;;;;;;;9.77;7.13;;;;;;;;;;5076654;28;20035;-59
2022/06/16 04:34:58;;;;;;;10.40;7.38;;;;;;;;;;5073218;28;20017;-58
2022/06/16 04:37:23;;;;;;;9.57;7.25;;;;;;;;;;5071051;28;20021;-58
2022/06/16 04:39:49;;;;;;;11.02;7.07;;;;;;;;;;5077280;28;20020;-58
2022/06/16 04:42:14;;;;;;;7.75;6.40;;;;;;;;;;5078360;28;20041;-58
2022/06/16 04:44:40;;;;;;;10.32;6.65;;;;;;;;;;5075570;28;20479;-58
2022/06/16 04:47:07;;;;;;;11.68;6.85;;;;;;;;;;5062980;28;20452;-59
2022/06/16 04:49:33;;;;;;;8.50;6.78;;;;;;;;;;5067080;28;20399;-58
2022/06/16 04:51:59;;;;;;;9.13;6.78;;;;;;;;;;5066495;28;20025;-58
2022/06/16 04:54:24;;;;;;;9.60;7.13;;;;;;;;;;5067479;28;20556;-59
2022/06/16 04:56:51;;;;;;;10.95;6.22;;;;;;;;;;5070893;28;20633;-58
2022/06/16 04:59:16;;;;;;;11.05;7.43;;;;;;;;;;5072727;28;20100;-58
2022/06/16 05:01:42;;;;;;;10.55;6.95;;;;;;;;;;5074909;28;20483;-58
2022/06/16 05:04:08;;;;;;;8.95;6.57;;;;;;;;;;5074864;28;20416;-58
2022/06/16 05:06:34;;;;;;;11.90;6.85;;;;;;;;;;5072742;28;20025;-59
2022/06/16 05:08:59;;;;;;;17.27;9.23;;;;;;;;;;5074181;28;20074;-58
2022/06/16 05:11:24;;;;;;;16.92;9.00;;;;;;;;;;5077213;28;20056;-59
2022/06/16 05:13:50;;;;;;;12.55;8.07;;;;;;;;;;5074322;28;20406;-59
2022/06/16 05:16:15;;;;;;;13.93;8.70;;;;;;;;;;5068592;28;20032;-59
2022/06/16 05:18:41;;;;;;;13.05;7.50;;;;;;;;;;5072641;28;20025;-59
2022/06/16 05:21:14;;;;;;;12.35;8.07;;;;;;;;;;5078644;28;20028;-59
2022/06/16 05:23:41;;;;;;;14.90;9.43;;;;;;;;;;5075542;28;20024;-59
2022/06/16 05:26:07;;;;;;;11.55;8.20;;;;;;;;;;5072068;28;20416;-58
2022/06/16 05:28:34;;;;;;;14.13;8.15;;;;;;;;;;5071313;28;20047;-58
2022/06/16 05:30:59;;;;;;;15.07;8.57;;;;;;;;;;5075244;28;20034;-59
2022/06/16 05:33:25;;;;;;;12.68;7.80;;;;;;;;;;5070026;28;20099;-58
2022/06/16 05:36:05;;;;;;;10.95;7.78;;;;;;;;;;5072888;28;20024;-59
2022/06/16 05:38:31;;;;;;;9.07;7.35;;;;;;;;;;5072252;28;20459;-59
2022/06/16 05:40:57;;;;;;;10.65;8.02;;;;;;;;;;5076478;28;20051;-59
2022/06/16 05:43:23;;;;;;;15.07;7.80;;;;;;;;;;5077440;28;20027;-59
2022/06/16 05:45:48;;;;;;;11.93;7.93;;;;;;;;;;5063408;28;20365;-59
2022/06/16 05:48:14;;;;;;;10.20;7.82;;;;;;;;;;5062592;28;20036;-60
2022/06/16 05:50:39;;;;;;;11.18;7.47;;;;;;;;;;5066979;28;20518;-59
2022/06/16 05:53:05;;;;;;;10.65;8.20;;;;;;;;;;5066822;28;20395;-60
2022/06/16 05:55:30;;;;;;;10.18;7.45;;;;;;;;;;5065869;28;20154;-59
2022/06/16 05:57:56;;;;;;;8.65;7.68;;;;;;;;;;5067796;28;20107;-59
2022/06/16 06:00:21;;;;;;;11.45;7.63;;;;;;;;;;5075231;28;20420;-59
2022/06/16 06:02:49;;;;;;;9.80;6.95;;;;;;;;;;5071654;28;20106;-59
2022/06/16 06:05:15;;;;;;;10.55;7.55;;;;;;;;;;5072990;28;20348;-59
2022/06/16 06:19:23;;;;;;;10.70;7.85;;;;;;;;;;5033433;28;20057;-59
2022/06/16 06:22:06;;;;;;;11.93;8.23;;;;;;;;;;5031616;28;20075;-59
2022/06/16 06:24:33;;;;;;;11.48;8.20;;;;;;;;;;5059826;28;20035;-59
2022/06/16 06:27:02;;;;;;;11.13;8.75;;;;;;;;;;5066371;28;20089;-59
2022/06/16 06:29:27;;;;;;;8.93;7.38;;;;;;;;;;5069098;28;20116;-59
2022/06/16 06:31:53;;;;;;;11.20;8.27;;;;;;;;;;5074322;28;20107;-59
2022/06/16 06:34:18;;;;;;;10.32;8.30;;;;;;;;;;5076193;28;20028;-59
2022/06/16 06:36:44;;;;;;;11.13;8.32;;;;;;;;;;5073042;28;20119;-58
2022/06/16 06:39:12;;;;;;;10.57;8.82;;;;;;;;;;5068978;28;20017;-59
2022/06/16 06:41:38;;;;;;;10.88;9.07;;;;;;;;;;5071429;28;20111;-59
2022/06/16 06:44:03;;;;;;;11.25;8.90;;;;;;;;;;5069695;28;20111;-59
2022/06/16 06:46:29;;;;;;;15.38;8.70;;;;;;;;;;5064603;28;20537;-58
2022/06/16 06:48:54;;;;;;;11.20;8.30;;;;;;;;;;5061784;28;20044;-60
2022/06/16 06:51:19;;;;;;;10.55;8.95;;;;;;;;;;5061221;28;20037;-59
2022/06/16 06:53:45;;;;;;;14.70;9.82;;;;;;;;;;5070250;28;20468;-59
2022/06/16 06:56:13;;;;;;;13.35;9.55;;;;;;;;;;5065256;28;20527;-60
2022/06/16 06:58:38;;;;;;;11.77;10.02;;;;;;;;;;5072090;28;20012;-59
2022/06/16 07:01:06;;;;;;;13.25;9.82;;;;;;;;;;5071160;28;20028;-59
2022/06/16 07:03:32;;;;;;;13.75;9.70;;;;;;;;;;5071784;28;20027;-60
2022/06/16 07:06:00;;;;;;;10.52;8.48;;;;;;;;;;5071013;28;20024;-59
2022/06/16 07:08:26;;;;;;;9.80;8.70;;;;;;;;;;5069687;28;20021;-59
2022/06/16 07:10:51;;;;;;;13.30;9.68;;;;;;;;;;5070775;28;20043;-59
2022/06/16 07:13:17;;;;;;;16.15;11.73;;;;;;;;;;5074851;28;20457;-59
2022/06/16 07:15:42;;;;;;;16.45;10.80;;;;;;;;;;5072239;28;20024;-59
2022/06/16 07:18:08;;;;;;;12.45;8.77;;;;;;;;;;5071603;28;20020;-59
2022/06/16 07:20:34;;;;;;;11.77;8.07;;;;;;;;;;5070261;28;20047;-59
2022/06/16 07:22:59;;;;;;;10.48;8.35;;;;;;;;;;5072946;28;20518;-59
2022/06/16 07:25:25;;;;;;;13.10;8.93;;;;;;;;;;5078380;28;20110;-59
2022/06/16 07:27:53;;;;;;;15.05;10.70;;;;;;;;;;5071500;28;20415;-59
2022/06/16 07:30:20;;;;;;;12.25;8.63;;;;;;;;;;5067790;28;20934;-59
2022/06/16 07:32:47;;;;;;;13.30;7.65;;;;;;;;;;5071669;28;20103;-59
2022/06/16 07:35:16;;;;;;;10.57;8.10;;;;;;;;;;5074270;28;20032;-60
2022/06/16 07:37:41;;;;;;;10.75;8.10;;;;;;;;;;5072365;28;20480;-59
2022/06/16 07:40:08;;;;;;;11.57;8.63;;;;;;;;;;5067531;28;20074;-59
2022/06/16 07:42:34;;;;;;;11.23;7.82;;;;;;;;;;5068522;28;20033;-59
2022/06/16 07:45:00;;;;;;;9.70;7.95;;;;;;;;;;5063147;28;20071;-60
2022/06/16 07:47:27;;;;;;;11.60;7.57;;;;;;;;;;5063658;28;20024;-59
2022/06/16 07:49:53;;;;;;;10.95;7.18;;;;;;;;;;5060949;28;20037;-60
2022/06/16 07:52:18;;;;;;;10.10;7.88;;;;;;;;;;5061134;28;20032;-59
2022/06/16 07:54:44;;;;;;;9.50;7.45;;;;;;;;;;5064781;28;20024;-59
2022/06/16 07:57:10;;;;;;;10.35;8.20;;;;;;;;;;5071279;28;20493;-59
2022/06/16 07:59:36;;;;;;;9.07;7.68;;;;;;;;;;5070500;28;20034;-60
2022/06/16 08:02:02;;;;;;;12.02;7.45;;;;;;;;;;5070021;28;20020;-60
2022/06/16 08:04:28;;;;;;;10.30;8.00;;;;;;;;;;5067630;28;20031;-60
2022/06/16 08:07:00;;;;;;;12.50;7.40;;;;;;;;;;5069441;28;20035;-59
2022/06/16 08:09:26;;;;;;;12.05;7.32;;;;;;;;;;5067098;28;20033;-59
2022/06/16 08:12:03;;;;;;;11.95;7.53;;;;;;;;;;5070233;28;20100;-60
2022/06/16 08:14:36;;;;;;;10.18;7.15;;;;;;;;;;5067812;28;20250;-60
2022/06/16 08:17:02;;;;;;;12.65;7.47;;;;;;;;;;5070927;28;20100;-61
2022/06/16 08:19:28;;;;;;;10.63;7.22;;;;;;;;;;5067552;28;20025;-60
2022/06/16 08:21:53;;;;;;;9.77;6.97;;;;;;;;;;5071170;28;20035;-58
2022/06/16 08:24:19;;;;;;;10.10;6.45;;;;;;;;;;5074066;28;20035;-60
2022/06/16 08:26:45;;;;;;;12.52;6.68;;;;;;;;;;5072647;28;20044;-59
2022/06/16 08:29:13;;;;;;;8.05;7.22;;;;;;;;;;5067839;28;20426;-60
2022/06/16 08:31:39;;;;;;;10.68;7.47;;;;;;;;;;5069050;28;20100;-60
2022/06/16 08:34:05;;;;;;;10.85;7.10;;;;;;;;;;5073584;28;20506;-59
2022/06/16 08:36:30;;;;;;;11.20;7.78;;;;;;;;;;5073090;28;20093;-60
2022/06/16 08:38:57;;;;;;;10.45;7.38;;;;;;;;;;5068556;28;20024;-61
2022/06/16 08:41:43;;;;;;;9.85;7.25;;;;;;;;;;5057857;28;20056;-60
2022/06/16 08:44:19;;;;;;;10.20;7.60;;;;;;;;;;5056904;28;20082;-60
2022/06/16 08:47:02;;;;;;;14.52;7.28;;;;;;;;;;5061302;28;20499;-60
2022/06/16 08:49:31;;;;;;;11.23;8.00;;;;;;;;;;5062747;28;20457;-59
2022/06/16 08:52:08;;;;;;;14.10;8.37;;;;;;;;;;5062712;28;20503;-60
2022/06/16 08:54:40;;;;;;;11.70;7.50;;;;;;;;;;5063761;28;20032;-60
2022/06/16 08:57:05;;;;;;;9.50;7.90;;;;;;;;;;5070053;28;20020;-58
2022/06/16 08:59:43;;;;;;;15.30;7.95;;;;;;;;;;5070697;28;20023;-58
2022/06/16 09:02:21;;;;;;;11.27;7.60;;;;;;;;;;5069609;28;20107;-59
2022/06/16 09:04:58;;;;;;;10.85;9.15;;;;;;;;;;5069634;28;20504;-59
2022/06/16 09:07:37;;;;;;;14.57;8.57;;;;;;;;;;5076373;28;20032;-59
2022/06/16 09:10:14;;;;;;;;;;;;;;;;;;5075087;28;20468;-59
2022/06/16 09:12:55;;;;;;;14.77;8.77;;;;;;;;;;5071770;28;20042;-59
2022/06/16 09:15:46;;;;;;;13.38;9.27;;;;;;;;;;5069583;28;20388;-60
2022/06/16 09:18:21;;;;;;;12.40;8.77;;;;;;;;;;5070656;28;20020;-59
2022/06/16 09:20:49;;;;;;;10.82;8.40;;;;;;;;;;5072993;28;20021;-59
2022/06/16 09:23:58;;;;;;;11.50;8.80;;;;;;;;;;5077692;28;20036;-60
2022/06/16 09:26:32;;;;;;;13.27;8.68;;;;;;;;;;5025643;28;20123;-60
2022/06/16 09:29:07;;;;;;;12.25;9.20;;;;;;;;;;5050750;28;20396;-60
2022/06/16 09:31:46;;;;;;;10.40;8.98;;;;;;;;;;5075634;28;20141;-60
2022/06/16 09:34:20;;;;;;;15.15;9.60;;;;;;;;;;5069923;28;20021;-59
2022/06/16 09:36:52;;;;;;;12.45;8.80;;;;;;;;;;5074839;28;20067;-60
2022/06/16 09:39:25;;;;;;;12.13;9.00;;;;;;;;;;5084027;28;20020;-60
2022/06/16 09:44:52;;;;;;;11.30;9.13;;;;;;;;;;5064069;28;20344;-60
2022/06/16 09:47:28;;;;;;;13.57;10.00;;;;;;;;;;5071269;28;20450;-60
2022/06/16 09:50:10;;;;;;;10.68;8.82;;;;;;;;;;5063903;28;20025;-60
2022/06/16 09:52:35;;;;;;;16.38;9.63;;;;;;;;;;5067773;28;20028;-60
2022/06/16 09:55:10;;;;;;;11.32;9.63;;;;;;;;;;5073312;28;20025;-60
2022/06/16 09:57:43;;;;;;;13.43;10.07;;;;;;;;;;5072913;28;20028;-59
2022/06/16 10:00:18;;;;;;;15.50;10.35;;;;;;;;;;5074203;28;20028;-60
2022/06/16 10:03:20;;;;;;;12.30;9.80;;;;;;;;;;5073360;28;20039;-60
2022/06/16 10:06:07;;;;;;;13.98;9.40;;;;;;;;;;5070493;28;20047;-61
2022/06/16 10:08:38;;;;;;;15.00;10.15;;;;;;;;;;5070885;28;20522;-60
2022/06/16 10:11:55;;;;;;;16.15;10.75;;;;;;;;;;5072652;28;20471;-59
2022/06/16 10:15:08;;;;;;;15.18;9.98;;;;;;;;;;5068804;28;20032;-59
2022/06/16 10:17:35;;;;;;;16.83;9.48;;;;;;;;;;5024227;28;20162;-60
2022/06/16 10:20:01;;;;;;;12.13;9.35;;;;;;;;;;5047822;28;20040;-60
2022/06/16 10:22:29;;;;;;;14.82;9.70;;;;;;;;;;5070577;28;20544;-60
2022/06/16 10:25:14;;;;;;;14.13;9.68;;;;;;;;;;5072188;28;20035;-60
2022/06/16 10:28:03;;;;;;;12.82;9.88;;;;;;;;;;5071721;28;20102;-60
2022/06/16 10:30:38;;;;;;;13.23;8.13;;;;;;;;;;5070176;28;20035;-60
2022/06/16 10:33:03;;;;;;;11.57;7.20;;;;;;;;;;5069582;28;20471;-60
2022/06/16 10:35:29;;;;;;;8.60;7.00;;;;;;;;;;5068989;28;20036;-61
2022/06/16 10:37:55;;;;;;;12.68;7.65;;;;;;;;;;5070702;28;20640;-61
2022/06/16 10:40:29;;;;;;;11.35;7.95;;;;;;;;;;5066512;28;20025;-60
2022/06/16 10:43:00;;;;;;;14.57;7.35;;;;;;;;;;5061400;28;20461;-60
2022/06/16 10:45:31;;;;;;;15.32;7.97;;;;;;;;;;5063129;28;20029;-60
2022/06/16 10:48:01;;;;;;;11.23;7.03;;;;;;;;;;5065583;28;20059;-60
2022/06/16 10:50:31;;;;;;;11.88;7.03;;;;;;;;;;5064777;28;20522;-59
2022/06/16 10:53:01;;;;;;;9.57;7.78;;;;;;;;;;5064615;28;20032;-60
2022/06/16 10:55:34;;;;;;;10.30;7.95;;;;;;;;;;5073889;28;20033;-60
2022/06/16 10:58:16;;;;;;;10.38;7.57;;;;;;;;;;5072274;28;20028;-59
2022/06/16 11:00:41;;;;;;;9.38;7.32;;;;;;;;;;5070431;28;20106;-59
2022/06/16 11:03:10;;;;;;;10.77;6.78;;;;;;;;;;5073040;28;20032;-59
2022/06/16 11:05:51;;;;;;;10.32;6.47;;;;;;;;;;5073317;28;20024;-60
2022/06/16 11:08:16;;;;;;;8.63;6.40;;;;;;;;;;5071213;28;20447;-60
2022/06/16 11:10:52;;;;;;;11.60;7.00;;;;;;;;;;5069811;28;20057;-60
2022/06/16 11:13:30;;;;;;;8.00;6.18;;;;;;;;;;5066490;28;20030;-60
2022/06/16 11:15:56;;;;;;;11.65;6.43;;;;;;;;;;5071735;28;20495;-60
2022/06/16 11:18:24;;;;;;;8.80;6.90;;;;;;;;;;5063356;28;20332;-60
2022/06/16 11:20:56;;;;;;;10.10;6.10;;;;;;;;;;5069387;28;20032;-61
2022/06/16 11:23:22;;;;;;;12.10;7.20;;;;;;;;;;5075441;28;20629;-60
2022/06/16 11:26:34;;;;;;;7.10;6.10;;;;;;;;;;5067036;28;20020;-60
2022/06/16 11:29:10;;;;;;;16.73;6.95;;;;;;;;;;5052638;28;20050;-61
2022/06/16 11:31:47;;;;;;;9.25;6.95;;;;;;;;;;5078119;28;20019;-60
2022/06/16 11:34:20;;;;;;;8.73;6.95;;;;;;;;;;5067591;28;20095;-60
2022/06/16 11:37:07;;;;;;;8.52;6.75;;;;;;;;;;5070446;28;20434;-60
2022/06/16 11:39:41;;;;;;;13.68;7.72;;;;;;;;;;5063310;28;20055;-60
2022/06/16 11:42:17;;;;;;;8.70;7.10;;;;;;;;;;5059193;28;20365;-60
2022/06/16 11:44:56;;;;;;;9.15;7.35;;;;;;;;;;5064435;28;20024;-61
2022/06/16 11:47:25;;;;;;;11.50;6.85;;;;;;;;;;5064645;28;20034;-60
2022/06/16 11:50:09;;;;;;;11.95;6.70;;;;;;;;;;5060906;28;20021;-60
2022/06/16 11:52:56;;;;;;;11.13;6.68;;;;;;;;;;5072123;28;20024;-60
2022/06/16 11:56:01;;;;;;;10.18;6.50;;;;;;;;;;5070785;28;20024;-61
2022/06/16 11:58:38;;;;;;;11.65;7.28;;;;;;;;;;5065209;28;20036;-61
2022/06/16 12:01:16;;;;;;;12.25;7.00;;;;;;;;;;5070774;28;20442;-61
2022/06/16 12:03:41;;;;;;;11.20;6.90;;;;;;;;;;5068482;28;20118;-61
2022/06/16 12:06:29;;;;;;;12.45;7.05;;;;;;;;;;5072038;28;20089;-61
2022/06/16 12:08:57;;;;;;;10.00;6.47;;;;;;;;;;5071419;28;20052;-61
2022/06/16 12:11:44;;;;;;;8.40;6.95;;;;;;;;;;5063149;28;20480;-61
2022/06/16 12:14:28;;;;;;;10.82;6.95;;;;;;;;;;5071954;28;20078;-61
2022/06/16 12:16:53;;;;;;;10.88;7.20;;;;;;;;;;5072898;28;20020;-61
2022/06/16 12:19:34;;;;;;;7.88;7.05;;;;;;;;;;5069931;28;20029;-61
2022/06/16 12:22:11;;;;;;;10.85;6.97;;;;;;;;;;5072023;28;20060;-62
2022/06/16 12:24:51;;;;;;;10.52;7.00;;;;;;;;;;5072561;28;20043;-60
2022/06/16 12:27:29;;;;;;;7.28;6.40;;;;;;;;;;5067329;28;20398;-62
2022/06/16 12:29:55;;;;;;;9.85;6.55;;;;;;;;;;5074164;28;20020;-62
2022/06/16 12:32:56;;;;;;;8.32;6.68;;;;;;;;;;5068740;28;20036;-61
2022/06/16 12:35:49;;;;;;;9.30;6.38;;;;;;;;;;5053883;28;20087;-61
2022/06/16 12:38:22;;;;;;;8.43;6.75;;;;;;;;;;5058275;28;20116;-61
2022/06/16 12:40:55;;;;;;;11.18;7.05;;;;;;;;;;5061086;28;20026;-61
2022/06/16 12:43:35;;;;;;;9.75;6.60;;;;;;;;;;5064934;28;20025;-61
2022/06/16 12:46:15;;;;;;;9.60;6.13;;;;;;;;;;5073730;28;20021;-61
2022/06/16 12:48:59;;;;;;;7.72;5.70;;;;;;;;;;5066320;28;20134;-61
2022/06/16 12:51:33;;;;;;;9.65;6.20;;;;;;;;;;5074076;28;20032;-60
2022/06/16 12:54:02;;;;;;;12.38;6.38;;;;;;;;;;5074441;28;20028;-60
2022/06/16 12:56:36;;;;;;;8.02;6.55;;;;;;;;;;5074051;28;20124;-61
2022/06/16 12:59:21;;;;;;;10.13;6.60;;;;;;;;;;5074822;28;20391;-61
2022/06/16 13:01:50;;;;;;;7.30;6.15;;;;;;;;;;5074370;28;20116;-61
2022/06/16 13:04:26;;;;;;;;;;;;;;;;;;5075135;28;20371;-60
2022/06/16 13:06:54;;;;;;;9.98;6.43;;;;;;;;;;5070386;28;19912;-61
2022/06/16 13:09:19;;;;;;;6.70;5.85;;;;;;;;;;5071422;28;20535;-60
2022/06/16 13:12:06;;;;;;;8.90;6.10;;;;;;;;;;5074376;28;20109;-62
2022/06/16 13:14:31;;;;;;;8.05;5.97;;;;;;;;;;5071360;28;20215;-61
2022/06/16 13:17:00;;;;;;;8.13;6.13;;;;;;;;;;5076320;28;20372;-61
2022/06/16 13:19:34;;;;;;;6.40;5.40;;;;;;;;;;5077452;28;20051;-61
2022/06/16 13:22:04;;;;;;;6.97;5.85;;;;;;;;;;5072420;28;20031;-60
2022/06/16 13:24:40;;;;;;;10.57;6.47;;;;;;;;;;5070817;28;20075;-60
2022/06/16 13:27:07;;;;;;;8.45;6.07;;;;;;;;;;5065744;28;20020;-61
2022/06/16 13:29:40;;;;;;;7.80;6.35;;;;;;;;;;5077052;28;20028;-61
2022/06/16 13:32:21;;;;;;;7.57;5.68;;;;;;;;;;5070257;28;20424;-61
2022/06/16 13:34:56;;;;;;;6.35;5.40;;;;;;;;;;5073189;28;20073;-62
2022/06/16 13:37:49;;;;;;;8.10;5.95;;;;;;;;;;5065774;28;20516;-62
2022/06/16 13:40:25;;;;;;;8.13;5.70;;;;;;;;;;5062088;28;20087;-62
2022/06/16 13:42:56;;;;;;;9.10;5.72;;;;;;;;;;5058076;28;20078;-61
2022/06/16 13:45:30;;;;;;;9.10;5.20;;;;;;;;;;5066719;28;20031;-61
2022/06/16 13:48:14;;;;;;;8.32;5.18;;;;;;;;;;5063672;28;20049;-61
2022/06/16 13:50:59;;;;;;;8.73;5.15;;;;;;;;;;5071082;28;20032;-61
2022/06/16 13:53:45;;;;;;;5.75;5.10;;;;;;;;;;5071689;28;20028;-61
2022/06/16 13:56:22;;;;;;;6.68;4.72;;;;;;;;;;5074302;28;20283;-61
2022/06/16 13:58:51;;;;;;;8.40;5.13;;;;;;;;;;5073144;28;20018;-62
2022/06/16 14:01:23;;;;;;;7.32;5.10;;;;;;;;;;5072197;28;20060;-62
2022/06/16 14:03:58;;;;;;;7.72;5.13;;;;;;;;;;5072850;28;20402;-62
2022/06/16 14:07:09;;;;;;;10.13;5.45;;;;;;;;;;5069459;28;20028;-62
2022/06/16 14:09:39;;;;;;;7.30;5.40;;;;;;;;;;5055664;28;20045;-61
2022/06/16 14:12:11;;;;;;;7.88;4.82;;;;;;;;;;5074942;28;20445;-61
2022/06/16 14:14:55;;;;;;;6.72;5.30;;;;;;;;;;5075001;28;20024;-62
2022/06/16 14:17:40;;;;;;;6.80;4.88;;;;;;;;;;5069982;28;20103;-61
2022/06/16 14:20:32;;;;;;;7.28;5.10;;;;;;;;;;5077051;28;20024;-61
2022/06/16 14:23:01;;;;;;;9.05;5.32;;;;;;;;;;5068674;28;20105;-61
2022/06/16 14:25:38;;;;;;;10.50;5.38;;;;;;;;;;5068992;28;20021;-61
2022/06/16 14:28:12;;;;;;;7.25;5.30;;;;;;;;;;5063808;28;20032;-59
2022/06/16 14:30:42;;;;;;;7.65;5.50;;;;;;;;;;5079862;28;20391;-60
2022/06/16 14:33:22;;;;;;;7.10;4.85;;;;;;;;;;5069245;28;20037;-61
2022/06/16 14:35:53;;;;;;;7.63;5.13;;;;;;;;;;5077929;28;20104;-61
2022/06/16 14:38:25;;;;;;;6.00;5.40;;;;;;;;;;5064981;28;20021;-61
2022/06/16 14:40:57;;;;;;;9.00;5.35;;;;;;;;;;5061729;28;20483;-61
2022/06/16 14:43:43;;;;;;;6.85;4.75;;;;;;;;;;5063970;28;20036;-60
2022/06/16 14:46:13;;;;;;;5.43;4.70;;;;;;;;;;5068029;28;20074;-61
2022/06/16 14:48:44;;;;;;;7.40;4.90;;;;;;;;;;5062237;28;20020;-61
2022/06/16 14:51:21;;;;;;;9.32;4.30;;;;;;;;;;5071008;28;20119;-61
2022/06/16 14:54:14;;;;;;;8.40;5.57;;;;;;;;;;5072549;28;20510;-61
2022/06/16 14:56:55;;;;;;;7.47;4.95;;;;;;;;;;5070913;28;20118;-60
2022/06/16 14:59:23;;;;;;;7.85;5.32;;;;;;;;;;5074944;28;20165;-61
2022/06/16 15:01:53;;;;;;;8.10;5.30;;;;;;;;;;5070034;28;20016;-60
2022/06/16 15:04:25;;;;;;;6.40;4.88;;;;;;;;;;5071974;28;20078;-60
2022/06/16 15:06:54;;;;;;;6.07;4.97;;;;;;;;;;5069591;28;20558;-61
2022/06/16 15:09:28;;;;;;;5.85;4.93;;;;;;;;;;5067124;28;20028;-60
2022/06/16 15:11:55;;;;;;;8.73;5.10;;;;;;;;;;5067022;28;20143;-60
2022/06/16 15:14:24;;;;;;;10.05;5.72;;;;;;;;;;5067229;28;20237;-61
2022/06/16 15:19:43;;;;;;;9.68;5.10;;;;;;;;;;5074254;28;20150;-60
2022/06/16 15:22:09;;;;;;;6.65;5.25;;;;;;;;;;5068092;28;20020;-61
2022/06/16 15:24:43;;;;;;;15.07;5.45;;;;;;;;;;5069252;28;20487;-61
2022/06/16 15:27:10;;;;;;;8.80;5.22;;;;;;;;;;5075616;28;20306;-60
2022/06/16 15:29:45;;;;;;;7.95;6.22;;;;;;;;;;5073703;28;20395;-62
2022/06/16 15:37:39;;;;;;;7.95;5.55;;;;;;;;;;5063090;28;20093;-60